sensor_id;sensor_type;location;lat;lon;timestamp;pressure;altitude;pressure_sealevel;temperature;humidity
50632;BME280;49583;45.590;-122.498;2023-11-25T00:00:46;102168.61;;;14.58;40.55
50632;BME280;49583;45.590;-122.498;2023-11-25T00:03:16;102168.27;;;14.41;40.88
50632;BME280;49583;45.590;-122.498;2023-11-25T00:05:29;102165.37;;;14.27;41.02
50632;BME280;49583;45.590;-122.498;2023-11-25T00:07:42;102162.34;;;14.12;41.25
50632;BME280;49583;45.590;-122.498;2023-11-25T00:09:54;102167.35;;;14.03;41.31
50632;BME280;49583;45.590;-122.498;2023-11-25T00:12:10;102170.90;;;13.92;41.20
50632;BME280;49583;45.590;-122.498;2023-11-25T00:14:22;102169.09;;;13.79;41.26
50632;BME280;49583;45.590;-122.498;2023-11-25T00:16:35;102172.00;;;13.67;41.41
50632;BME280;49583;45.590;-122.498;2023-11-25T00:18:48;102174.22;;;13.56;41.54
50632;BME280;49583;45.590;-122.498;2023-11-25T00:21:01;102178.87;;;13.46;41.57
50632;BME280;49583;45.590;-122.498;2023-11-25T00:23:14;102181.86;;;13.37;41.52
50632;BME280;49583;45.590;-122.498;2023-11-25T00:25:28;102183.48;;;13.27;41.46
50632;BME280;49583;45.590;-122.498;2023-11-25T00:27:42;102179.81;;;13.17;41.46
50632;BME280;49583;45.590;-122.498;2023-11-25T00:29:56;102185.80;;;13.06;41.55
50632;BME280;49583;45.590;-122.498;2023-11-25T00:32:09;102190.94;;;12.96;41.67
50632;BME280;49583;45.590;-122.498;2023-11-25T00:34:25;102187.58;;;12.88;41.70
50632;BME280;49583;45.590;-122.498;2023-11-25T00:36:40;102189.70;;;12.81;41.94
50632;BME280;49583;45.590;-122.498;2023-11-25T00:38:57;102192.56;;;12.71;41.85
50632;BME280;49583;45.590;-122.498;2023-11-25T00:41:10;102196.83;;;12.60;42.05
50632;BME280;49583;45.590;-122.498;2023-11-25T00:43:24;102196.58;;;12.47;42.27
50632;BME280;49583;45.590;-122.498;2023-11-25T00:45:36;102200.15;;;12.36;42.39
50632;BME280;49583;45.590;-122.498;2023-11-25T00:47:49;102199.82;;;12.25;42.68
50632;BME280;49583;45.590;-122.498;2023-11-25T00:50:02;102199.97;;;12.15;42.98
50632;BME280;49583;45.590;-122.498;2023-11-25T00:52:20;102200.64;;;12.06;43.23
50632;BME280;49583;45.590;-122.498;2023-11-25T00:54:33;102199.54;;;11.96;43.45
50632;BME280;49583;45.590;-122.498;2023-11-25T00:56:47;102199.23;;;11.88;43.77
50632;BME280;49583;45.590;-122.498;2023-11-25T00:59:00;102201.52;;;11.81;44.01
50632;BME280;49583;45.590;-122.498;2023-11-25T01:01:14;102202.55;;;11.72;44.13
50632;BME280;49583;45.590;-122.498;2023-11-25T01:03:30;102199.38;;;11.62;44.46
50632;BME280;49583;45.590;-122.498;2023-11-25T01:05:44;102199.55;;;11.53;44.69
50632;BME280;49583;45.590;-122.498;2023-11-25T01:07:57;102204.34;;;11.46;45.01
50632;BME280;49583;45.590;-122.498;2023-11-25T01:10:11;102205.27;;;11.38;45.07
50632;BME280;49583;45.590;-122.498;2023-11-25T01:12:24;102206.91;;;11.29;45.19
50632;BME280;49583;45.590;-122.498;2023-11-25T01:14:40;102206.14;;;11.19;45.59
50632;BME280;49583;45.590;-122.498;2023-11-25T01:16:54;102203.21;;;11.12;45.84
50632;BME280;49583;45.590;-122.498;2023-11-25T01:19:10;102207.25;;;11.04;45.91
50632;BME280;49583;45.590;-122.498;2023-11-25T01:21:24;102206.05;;;10.96;46.16
50632;BME280;49583;45.590;-122.498;2023-11-25T01:23:36;102207.21;;;10.87;46.38
50632;BME280;49583;45.590;-122.498;2023-11-25T01:25:50;102212.25;;;10.79;46.33
50632;BME280;49583;45.590;-122.498;2023-11-25T01:28:04;102211.93;;;10.70;46.58
50632;BME280;49583;45.590;-122.498;2023-11-25T01:30:17;102207.98;;;10.58;46.83
50632;BME280;49583;45.590;-122.498;2023-11-25T01:32:30;102212.09;;;10.50;46.80
50632;BME280;49583;45.590;-122.498;2023-11-25T01:34:44;102214.85;;;10.39;46.96
50632;BME280;49583;45.590;-122.498;2023-11-25T01:36:57;102216.48;;;10.31;47.43
50632;BME280;49583;45.590;-122.498;2023-11-25T01:39:09;102218.17;;;10.24;47.60
50632;BME280;49583;45.590;-122.498;2023-11-25T01:41:24;102220.66;;;10.17;47.77
50632;BME280;49583;45.590;-122.498;2023-11-25T01:43:37;102226.88;;;10.10;47.82
50632;BME280;49583;45.590;-122.498;2023-11-25T01:45:50;102232.09;;;10.04;48.02
50632;BME280;49583;45.590;-122.498;2023-11-25T01:48:06;102226.89;;;9.96;48.06
50632;BME280;49583;45.590;-122.498;2023-11-25T01:50:22;102229.91;;;9.89;48.64
50632;BME280;49583;45.590;-122.498;2023-11-25T01:52:36;102227.92;;;9.83;48.79
50632;BME280;49583;45.590;-122.498;2023-11-25T01:54:50;102234.05;;;9.79;48.97
50632;BME280;49583;45.590;-122.498;2023-11-25T01:57:03;102232.91;;;9.75;48.96
50632;BME280;49583;45.590;-122.498;2023-11-25T01:59:17;102237.35;;;9.69;49.38
50632;BME280;49583;45.590;-122.498;2023-11-25T02:01:31;102233.07;;;9.65;49.57
50632;BME280;49583;45.590;-122.498;2023-11-25T02:03:44;102232.76;;;9.63;49.38
50632;BME280;49583;45.590;-122.498;2023-11-25T02:05:57;102241.08;;;9.54;49.69
50632;BME280;49583;45.590;-122.498;2023-11-25T02:08:10;102243.71;;;9.48;49.57
50632;BME280;49583;45.590;-122.498;2023-11-25T02:10:23;102246.98;;;9.40;49.65
50632;BME280;49583;45.590;-122.498;2023-11-25T02:12:36;102243.56;;;9.33;49.66
50632;BME280;49583;45.590;-122.498;2023-11-25T02:14:53;102250.65;;;9.27;49.92
50632;BME280;49583;45.590;-122.498;2023-11-25T02:17:06;102250.59;;;9.20;50.18
50632;BME280;49583;45.590;-122.498;2023-11-25T02:19:21;102253.45;;;9.15;50.51
50632;BME280;49583;45.590;-122.498;2023-11-25T02:21:34;102257.83;;;9.11;50.57
50632;BME280;49583;45.590;-122.498;2023-11-25T02:23:52;102251.79;;;9.06;50.54
50632;BME280;49583;45.590;-122.498;2023-11-25T02:26:06;102252.86;;;9.01;50.59
50632;BME280;49583;45.590;-122.498;2023-11-25T02:28:19;102254.64;;;8.96;50.83
50632;BME280;49583;45.590;-122.498;2023-11-25T02:30:32;102252.66;;;8.92;51.11
50632;BME280;49583;45.590;-122.498;2023-11-25T02:32:46;102251.19;;;8.87;51.10
50632;BME280;49583;45.590;-122.498;2023-11-25T02:35:00;102251.75;;;8.80;51.02
50632;BME280;49583;45.590;-122.498;2023-11-25T02:37:13;102254.43;;;8.75;51.18
50632;BME280;49583;45.590;-122.498;2023-11-25T02:39:26;102253.46;;;8.69;51.39
50632;BME280;49583;45.590;-122.498;2023-11-25T02:41:52;102249.40;;;8.63;51.51
50632;BME280;49583;45.590;-122.498;2023-11-25T02:44:05;102248.98;;;8.58;51.58
50632;BME280;49583;45.590;-122.498;2023-11-25T02:46:19;102247.76;;;8.51;51.82
50632;BME280;49583;45.590;-122.498;2023-11-25T02:48:34;102249.27;;;8.46;51.87
50632;BME280;49583;45.590;-122.498;2023-11-25T02:50:47;102254.88;;;8.40;52.15
50632;BME280;49583;45.590;-122.498;2023-11-25T02:53:01;102258.55;;;8.35;52.21
50632;BME280;49583;45.590;-122.498;2023-11-25T02:55:15;102257.29;;;8.31;52.33
50632;BME280;49583;45.590;-122.498;2023-11-25T02:57:27;102256.19;;;8.28;52.58
50632;BME280;49583;45.590;-122.498;2023-11-25T02:59:42;102260.52;;;8.26;52.43
50632;BME280;49583;45.590;-122.498;2023-11-25T03:01:55;102258.47;;;8.21;52.66
50632;BME280;49583;45.590;-122.498;2023-11-25T03:04:16;102262.80;;;8.15;52.71
50632;BME280;49583;45.590;-122.498;2023-11-25T03:06:30;102262.63;;;8.06;52.70
50632;BME280;49583;45.590;-122.498;2023-11-25T03:08:42;102261.06;;;7.98;52.75
50632;BME280;49583;45.590;-122.498;2023-11-25T03:10:56;102263.50;;;7.93;52.96
50632;BME280;49583;45.590;-122.498;2023-11-25T03:13:09;102261.10;;;7.85;52.97
50632;BME280;49583;45.590;-122.498;2023-11-25T03:15:21;102262.46;;;7.79;53.10
50632;BME280;49583;45.590;-122.498;2023-11-25T03:17:34;102264.28;;;7.73;53.27
50632;BME280;49583;45.590;-122.498;2023-11-25T03:19:47;102260.52;;;7.67;53.28
50632;BME280;49583;45.590;-122.498;2023-11-25T03:22:00;102258.39;;;7.58;53.35
50632;BME280;49583;45.590;-122.498;2023-11-25T03:24:13;102265.63;;;7.49;53.54
50632;BME280;49583;45.590;-122.498;2023-11-25T03:26:27;102266.21;;;7.42;53.64
50632;BME280;49583;45.590;-122.498;2023-11-25T03:28:44;102262.95;;;7.37;53.92
50632;BME280;49583;45.590;-122.498;2023-11-25T03:30:59;102267.25;;;7.32;54.18
50632;BME280;49583;45.590;-122.498;2023-11-25T03:33:13;102270.85;;;7.28;54.24
50632;BME280;49583;45.590;-122.498;2023-11-25T03:35:26;102268.72;;;7.23;54.33
50632;BME280;49583;45.590;-122.498;2023-11-25T03:37:40;102270.37;;;7.18;54.49
50632;BME280;49583;45.590;-122.498;2023-11-25T03:39:53;102272.05;;;7.12;54.52
50632;BME280;49583;45.590;-122.498;2023-11-25T03:42:06;102272.73;;;7.07;54.56
50632;BME280;49583;45.590;-122.498;2023-11-25T03:44:19;102271.74;;;7.00;54.54
50632;BME280;49583;45.590;-122.498;2023-11-25T03:46:32;102272.55;;;6.91;54.52
50632;BME280;49583;45.590;-122.498;2023-11-25T03:48:46;102267.31;;;6.79;54.53
50632;BME280;49583;45.590;-122.498;2023-11-25T03:51:00;102273.85;;;6.72;54.59
50632;BME280;49583;45.590;-122.498;2023-11-25T03:53:13;102270.30;;;6.65;54.93
50632;BME280;49583;45.590;-122.498;2023-11-25T03:55:26;102275.27;;;6.60;55.00
50632;BME280;49583;45.590;-122.498;2023-11-25T03:57:39;102277.79;;;6.55;55.06
50632;BME280;49583;45.590;-122.498;2023-11-25T03:59:52;102280.20;;;6.50;55.48
50632;BME280;49583;45.590;-122.498;2023-11-25T04:02:05;102275.41;;;6.46;55.46
50632;BME280;49583;45.590;-122.498;2023-11-25T04:04:18;102273.30;;;6.41;55.47
50632;BME280;49583;45.590;-122.498;2023-11-25T04:06:31;102281.66;;;6.38;55.34
50632;BME280;49583;45.590;-122.498;2023-11-25T04:08:47;102276.81;;;6.30;55.33
50632;BME280;49583;45.590;-122.498;2023-11-25T04:10:59;102278.59;;;6.23;55.55
50632;BME280;49583;45.590;-122.498;2023-11-25T04:13:17;102278.49;;;6.17;56.14
50632;BME280;49583;45.590;-122.498;2023-11-25T04:15:32;102280.86;;;6.19;56.38
50632;BME280;49583;45.590;-122.498;2023-11-25T04:17:48;102279.74;;;6.17;56.52
50632;BME280;49583;45.590;-122.498;2023-11-25T04:20:02;102285.47;;;6.20;56.80
50632;BME280;49583;45.590;-122.498;2023-11-25T04:22:24;102286.89;;;6.20;57.02
50632;BME280;49583;45.590;-122.498;2023-11-25T04:24:36;102289.12;;;6.20;56.85
50632;BME280;49583;45.590;-122.498;2023-11-25T04:26:49;102287.36;;;6.19;57.10
50632;BME280;49583;45.590;-122.498;2023-11-25T04:29:02;102288.78;;;6.18;57.39
50632;BME280;49583;45.590;-122.498;2023-11-25T04:31:15;102288.48;;;6.15;57.19
50632;BME280;49583;45.590;-122.498;2023-11-25T04:33:28;102289.05;;;6.09;56.98
50632;BME280;49583;45.590;-122.498;2023-11-25T04:35:43;102291.09;;;6.02;57.13
50632;BME280;49583;45.590;-122.498;2023-11-25T04:37:56;102290.59;;;5.97;57.19
50632;BME280;49583;45.590;-122.498;2023-11-25T04:40:11;102285.97;;;5.92;57.12
50632;BME280;49583;45.590;-122.498;2023-11-25T04:42:25;102288.35;;;5.86;57.51
50632;BME280;49583;45.590;-122.498;2023-11-25T04:44:39;102284.76;;;5.79;57.26
50632;BME280;49583;45.590;-122.498;2023-11-25T04:46:52;102286.28;;;5.73;57.57
50632;BME280;49583;45.590;-122.498;2023-11-25T04:49:05;102285.20;;;5.69;57.80
50632;BME280;49583;45.590;-122.498;2023-11-25T04:51:24;102279.85;;;5.65;57.75
50632;BME280;49583;45.590;-122.498;2023-11-25T04:53:38;102276.92;;;5.58;57.82
50632;BME280;49583;45.590;-122.498;2023-11-25T04:55:51;102280.08;;;5.54;57.80
50632;BME280;49583;45.590;-122.498;2023-11-25T04:58:04;102283.04;;;5.47;58.04
50632;BME280;49583;45.590;-122.498;2023-11-25T05:00:18;102289.24;;;5.43;58.32
50632;BME280;49583;45.590;-122.498;2023-11-25T05:02:32;102291.40;;;5.39;58.49
50632;BME280;49583;45.590;-122.498;2023-11-25T05:04:44;102293.20;;;5.38;58.58
50632;BME280;49583;45.590;-122.498;2023-11-25T05:06:58;102292.21;;;5.33;58.45
50632;BME280;49583;45.590;-122.498;2023-11-25T05:09:11;102292.69;;;5.28;58.63
50632;BME280;49583;45.590;-122.498;2023-11-25T05:11:25;102294.69;;;5.22;58.63
50632;BME280;49583;45.590;-122.498;2023-11-25T05:13:38;102294.52;;;5.16;58.83
50632;BME280;49583;45.590;-122.498;2023-11-25T05:15:51;102294.82;;;5.12;58.88
50632;BME280;49583;45.590;-122.498;2023-11-25T05:18:04;102294.59;;;5.08;58.84
50632;BME280;49583;45.590;-122.498;2023-11-25T05:20:17;102291.38;;;5.01;59.15
50632;BME280;49583;45.590;-122.498;2023-11-25T05:22:30;102296.37;;;5.01;59.00
50632;BME280;49583;45.590;-122.498;2023-11-25T05:24:43;102297.20;;;4.98;59.12
50632;BME280;49583;45.590;-122.498;2023-11-25T05:26:57;102297.30;;;4.94;59.13
50632;BME280;49583;45.590;-122.498;2023-11-25T05:29:10;102295.95;;;4.90;59.38
50632;BME280;49583;45.590;-122.498;2023-11-25T05:31:22;102289.27;;;4.83;59.43
50632;BME280;49583;45.590;-122.498;2023-11-25T05:33:35;102297.41;;;4.82;59.60
50632;BME280;49583;45.590;-122.498;2023-11-25T05:35:48;102300.11;;;4.77;59.86
50632;BME280;49583;45.590;-122.498;2023-11-25T05:38:01;102302.45;;;4.74;60.05
50632;BME280;49583;45.590;-122.498;2023-11-25T05:40:16;102305.10;;;4.69;60.15
50632;BME280;49583;45.590;-122.498;2023-11-25T05:42:28;102304.29;;;4.68;60.35
50632;BME280;49583;45.590;-122.498;2023-11-25T05:44:41;102307.60;;;4.65;60.34
50632;BME280;49583;45.590;-122.498;2023-11-25T05:46:58;102308.13;;;4.61;60.42
50632;BME280;49583;45.590;-122.498;2023-11-25T05:49:10;102310.31;;;4.57;60.15
50632;BME280;49583;45.590;-122.498;2023-11-25T05:51:31;102314.67;;;4.54;60.03
50632;BME280;49583;45.590;-122.498;2023-11-25T05:53:44;102316.70;;;4.50;60.20
50632;BME280;49583;45.590;-122.498;2023-11-25T05:55:59;102317.04;;;4.47;60.30
50632;BME280;49583;45.590;-122.498;2023-11-25T05:58:12;102318.55;;;4.44;60.35
50632;BME280;49583;45.590;-122.498;2023-11-25T06:00:26;102319.90;;;4.38;60.27
50632;BME280;49583;45.590;-122.498;2023-11-25T06:02:40;102319.69;;;4.34;60.24
50632;BME280;49583;45.590;-122.498;2023-11-25T06:04:52;102316.99;;;4.28;60.39
50632;BME280;49583;45.590;-122.498;2023-11-25T06:07:06;102315.39;;;4.21;60.49
50632;BME280;49583;45.590;-122.498;2023-11-25T06:09:19;102311.14;;;4.13;60.28
50632;BME280;49583;45.590;-122.498;2023-11-25T06:11:32;102311.65;;;4.06;60.31
50632;BME280;49583;45.590;-122.498;2023-11-25T06:13:45;102313.40;;;4.02;60.51
50632;BME280;49583;45.590;-122.498;2023-11-25T06:15:58;102312.27;;;3.96;60.48
50632;BME280;49583;45.590;-122.498;2023-11-25T06:18:11;102312.34;;;3.92;60.81
50632;BME280;49583;45.590;-122.498;2023-11-25T06:20:25;102315.83;;;3.86;60.97
50632;BME280;49583;45.590;-122.498;2023-11-25T06:22:38;102313.82;;;3.82;61.09
50632;BME280;49583;45.590;-122.498;2023-11-25T06:24:54;102313.38;;;3.80;61.12
50632;BME280;49583;45.590;-122.498;2023-11-25T06:27:10;102313.95;;;3.77;61.33
50632;BME280;49583;45.590;-122.498;2023-11-25T06:29:24;102314.77;;;3.77;61.74
50632;BME280;49583;45.590;-122.498;2023-11-25T06:31:37;102312.16;;;3.79;61.84
50632;BME280;49583;45.590;-122.498;2023-11-25T06:33:51;102313.65;;;3.81;61.71
50632;BME280;49583;45.590;-122.498;2023-11-25T06:36:08;102310.78;;;3.82;61.68
50632;BME280;49583;45.590;-122.498;2023-11-25T06:38:21;102313.76;;;3.88;61.76
50632;BME280;49583;45.590;-122.498;2023-11-25T06:40:35;102315.85;;;3.95;61.83
50632;BME280;49583;45.590;-122.498;2023-11-25T06:42:48;102314.42;;;4.05;61.86
50632;BME280;49583;45.590;-122.498;2023-11-25T06:45:04;102314.60;;;4.15;61.68
50632;BME280;49583;45.590;-122.498;2023-11-25T06:47:17;102317.56;;;4.23;61.45
50632;BME280;49583;45.590;-122.498;2023-11-25T06:49:30;102321.01;;;4.32;61.53
50632;BME280;49583;45.590;-122.498;2023-11-25T06:51:44;102324.45;;;4.38;61.18
50632;BME280;49583;45.590;-122.498;2023-11-25T06:53:58;102326.75;;;4.44;60.87
50632;BME280;49583;45.590;-122.498;2023-11-25T06:56:14;102325.91;;;4.50;60.88
50632;BME280;49583;45.590;-122.498;2023-11-25T06:58:28;102327.04;;;4.55;60.60
50632;BME280;49583;45.590;-122.498;2023-11-25T07:00:43;102325.48;;;4.59;60.64
50632;BME280;49583;45.590;-122.498;2023-11-25T07:02:57;102326.19;;;4.63;60.45
50632;BME280;49583;45.590;-122.498;2023-11-25T07:05:10;102319.02;;;4.62;60.35
50632;BME280;49583;45.590;-122.498;2023-11-25T07:07:23;102328.46;;;4.64;60.23
50632;BME280;49583;45.590;-122.498;2023-11-25T07:09:36;102326.23;;;4.64;59.90
50632;BME280;49583;45.590;-122.498;2023-11-25T07:11:59;102330.23;;;4.65;60.13
50632;BME280;49583;45.590;-122.498;2023-11-25T07:14:13;102325.40;;;4.66;60.02
50632;BME280;49583;45.590;-122.498;2023-11-25T07:16:26;102324.83;;;4.63;59.96
50632;BME280;49583;45.590;-122.498;2023-11-25T07:18:38;102326.64;;;4.58;59.66
50632;BME280;49583;45.590;-122.498;2023-11-25T07:20:53;102323.95;;;4.53;59.55
50632;BME280;49583;45.590;-122.498;2023-11-25T07:23:07;102323.35;;;4.42;59.42
50632;BME280;49583;45.590;-122.498;2023-11-25T07:25:22;102320.25;;;4.32;59.26
50632;BME280;49583;45.590;-122.498;2023-11-25T07:27:38;102324.88;;;4.24;59.30
50632;BME280;49583;45.590;-122.498;2023-11-25T07:29:51;102322.42;;;4.14;59.29
50632;BME280;49583;45.590;-122.498;2023-11-25T07:32:05;102323.90;;;4.04;59.09
50632;BME280;49583;45.590;-122.498;2023-11-25T07:34:20;102325.13;;;3.94;59.24
50632;BME280;49583;45.590;-122.498;2023-11-25T07:36:34;102325.95;;;3.87;59.33
50632;BME280;49583;45.590;-122.498;2023-11-25T07:38:47;102328.51;;;3.87;59.71
50632;BME280;49583;45.590;-122.498;2023-11-25T07:41:00;102325.08;;;3.90;59.86
50632;BME280;49583;45.590;-122.498;2023-11-25T07:43:13;102325.95;;;3.93;59.94
50632;BME280;49583;45.590;-122.498;2023-11-25T07:45:26;102322.58;;;3.95;59.91
50632;BME280;49583;45.590;-122.498;2023-11-25T07:47:39;102321.88;;;3.92;59.64
50632;BME280;49583;45.590;-122.498;2023-11-25T07:49:52;102328.01;;;3.88;59.73
50632;BME280;49583;45.590;-122.498;2023-11-25T07:52:05;102323.48;;;3.83;59.56
50632;BME280;49583;45.590;-122.498;2023-11-25T07:54:19;102326.99;;;3.79;59.61
50632;BME280;49583;45.590;-122.498;2023-11-25T07:56:32;102327.96;;;3.74;59.62
50632;BME280;49583;45.590;-122.498;2023-11-25T07:58:46;102328.91;;;3.69;59.68
50632;BME280;49583;45.590;-122.498;2023-11-25T08:00:59;102326.27;;;3.64;59.66
50632;BME280;49583;45.590;-122.498;2023-11-25T08:03:13;102334.54;;;3.59;59.74
50632;BME280;49583;45.590;-122.498;2023-11-25T08:05:26;102329.73;;;3.52;59.93
50632;BME280;49583;45.590;-122.498;2023-11-25T08:07:42;102325.57;;;3.45;60.03
50632;BME280;49583;45.590;-122.498;2023-11-25T08:09:56;102329.46;;;3.38;59.92
50632;BME280;49583;45.590;-122.498;2023-11-25T08:12:10;102329.84;;;3.33;60.34
50632;BME280;49583;45.590;-122.498;2023-11-25T08:14:23;102326.52;;;3.27;60.32
50632;BME280;49583;45.590;-122.498;2023-11-25T08:16:36;102326.27;;;3.21;60.48
50632;BME280;49583;45.590;-122.498;2023-11-25T08:18:59;102322.95;;;3.14;60.62
50632;BME280;49583;45.590;-122.498;2023-11-25T08:21:11;102323.27;;;3.09;60.64
50632;BME280;49583;45.590;-122.498;2023-11-25T08:23:24;102324.06;;;3.03;60.82
50632;BME280;49583;45.590;-122.498;2023-11-25T08:25:37;102322.92;;;2.99;60.70
50632;BME280;49583;45.590;-122.498;2023-11-25T08:27:52;102321.20;;;2.94;60.87
50632;BME280;49583;45.590;-122.498;2023-11-25T08:30:05;102316.85;;;2.90;60.98
50632;BME280;49583;45.590;-122.498;2023-11-25T08:32:19;102322.10;;;2.87;61.10
50632;BME280;49583;45.590;-122.498;2023-11-25T08:34:32;102316.51;;;2.81;61.08
50632;BME280;49583;45.590;-122.498;2023-11-25T08:36:47;102330.84;;;2.77;61.07
50632;BME280;49583;45.590;-122.498;2023-11-25T08:39:07;102328.48;;;2.70;61.19
50632;BME280;49583;45.590;-122.498;2023-11-25T08:41:23;102325.33;;;2.63;61.31
50632;BME280;49583;45.590;-122.498;2023-11-25T08:43:36;102321.15;;;2.59;61.37
50632;BME280;49583;45.590;-122.498;2023-11-25T08:45:53;102322.00;;;2.54;61.48
50632;BME280;49583;45.590;-122.498;2023-11-25T08:48:06;102320.14;;;2.51;61.56
50632;BME280;49583;45.590;-122.498;2023-11-25T08:50:21;102317.60;;;2.47;61.69
50632;BME280;49583;45.590;-122.498;2023-11-25T08:52:33;102316.39;;;2.45;61.77
50632;BME280;49583;45.590;-122.498;2023-11-25T08:54:48;102318.15;;;2.42;61.85
50632;BME280;49583;45.590;-122.498;2023-11-25T08:57:03;102316.77;;;2.39;61.89
50632;BME280;49583;45.590;-122.498;2023-11-25T08:59:18;102311.02;;;2.36;61.99
50632;BME280;49583;45.590;-122.498;2023-11-25T09:01:39;102311.92;;;2.32;62.06
50632;BME280;49583;45.590;-122.498;2023-11-25T09:03:52;102309.41;;;2.30;62.11
50632;BME280;49583;45.590;-122.498;2023-11-25T09:06:06;102313.77;;;2.27;62.28
50632;BME280;49583;45.590;-122.498;2023-11-25T09:08:22;102305.98;;;2.25;62.26
50632;BME280;49583;45.590;-122.498;2023-11-25T09:10:35;102306.20;;;2.22;62.48
50632;BME280;49583;45.590;-122.498;2023-11-25T09:12:48;102300.82;;;2.20;62.48
50632;BME280;49583;45.590;-122.498;2023-11-25T09:15:02;102303.17;;;2.17;62.61
50632;BME280;49583;45.590;-122.498;2023-11-25T09:17:21;102303.23;;;2.15;62.65
50632;BME280;49583;45.590;-122.498;2023-11-25T09:19:33;102296.95;;;2.11;62.81
50632;BME280;49583;45.590;-122.498;2023-11-25T09:21:46;102301.77;;;2.13;62.80
50632;BME280;49583;45.590;-122.498;2023-11-25T09:23:59;102304.30;;;2.12;62.90
50632;BME280;49583;45.590;-122.498;2023-11-25T09:26:16;102300.63;;;2.12;63.05
50632;BME280;49583;45.590;-122.498;2023-11-25T09:28:35;102301.19;;;2.09;63.03
50632;BME280;49583;45.590;-122.498;2023-11-25T09:30:48;102302.73;;;2.08;63.00
50632;BME280;49583;45.590;-122.498;2023-11-25T09:33:02;102302.29;;;2.08;63.16
50632;BME280;49583;45.590;-122.498;2023-11-25T09:35:15;102307.31;;;2.07;63.13
50632;BME280;49583;45.590;-122.498;2023-11-25T09:37:28;102307.82;;;2.03;63.17
50632;BME280;49583;45.590;-122.498;2023-11-25T09:39:46;102307.81;;;2.00;63.11
50632;BME280;49583;45.590;-122.498;2023-11-25T09:42:00;102309.52;;;1.97;63.13
50632;BME280;49583;45.590;-122.498;2023-11-25T09:44:13;102308.30;;;1.94;63.09
50632;BME280;49583;45.590;-122.498;2023-11-25T09:46:26;102311.39;;;1.92;63.28
50632;BME280;49583;45.590;-122.498;2023-11-25T09:48:39;102313.92;;;1.90;63.20
50632;BME280;49583;45.590;-122.498;2023-11-25T09:51:01;102311.67;;;1.88;63.23
50632;BME280;49583;45.590;-122.498;2023-11-25T09:53:23;102312.32;;;1.87;63.31
50632;BME280;49583;45.590;-122.498;2023-11-25T09:55:40;102312.15;;;1.85;63.43
50632;BME280;49583;45.590;-122.498;2023-11-25T09:58:02;102312.23;;;1.81;63.52
50632;BME280;49583;45.590;-122.498;2023-11-25T10:00:18;102312.96;;;1.79;63.38
50632;BME280;49583;45.590;-122.498;2023-11-25T10:02:35;102311.77;;;1.76;63.68
50632;BME280;49583;45.590;-122.498;2023-11-25T10:04:49;102315.49;;;1.75;63.84
50632;BME280;49583;45.590;-122.498;2023-11-25T10:07:03;102319.91;;;1.74;63.82
50632;BME280;49583;45.590;-122.498;2023-11-25T10:09:16;102312.80;;;1.71;63.85
50632;BME280;49583;45.590;-122.498;2023-11-25T10:11:32;102322.70;;;1.70;63.91
50632;BME280;49583;45.590;-122.498;2023-11-25T10:13:46;102325.59;;;1.67;64.05
50632;BME280;49583;45.590;-122.498;2023-11-25T10:15:59;102328.20;;;1.65;64.15
50632;BME280;49583;45.590;-122.498;2023-11-25T10:18:16;102323.77;;;1.60;64.07
50632;BME280;49583;45.590;-122.498;2023-11-25T10:20:29;102329.02;;;1.56;64.08
50632;BME280;49583;45.590;-122.498;2023-11-25T10:22:49;102328.27;;;1.51;64.10
50632;BME280;49583;45.590;-122.498;2023-11-25T10:25:04;102323.23;;;1.48;64.24
50632;BME280;49583;45.590;-122.498;2023-11-25T10:27:20;102324.45;;;1.45;64.27
50632;BME280;49583;45.590;-122.498;2023-11-25T10:29:35;102335.27;;;1.41;64.41
50632;BME280;49583;45.590;-122.498;2023-11-25T10:31:57;102331.46;;;1.37;64.56
50632;BME280;49583;45.590;-122.498;2023-11-25T10:34:12;102330.66;;;1.33;64.57
50632;BME280;49583;45.590;-122.498;2023-11-25T10:36:35;102328.11;;;1.30;64.73
50632;BME280;49583;45.590;-122.498;2023-11-25T10:38:49;102329.48;;;1.27;64.67
50632;BME280;49583;45.590;-122.498;2023-11-25T10:41:05;102331.45;;;1.24;64.85
50632;BME280;49583;45.590;-122.498;2023-11-25T10:43:19;102331.92;;;1.21;64.86
50632;BME280;49583;45.590;-122.498;2023-11-25T10:45:33;102336.20;;;1.19;64.91
50632;BME280;49583;45.590;-122.498;2023-11-25T10:47:47;102334.67;;;1.18;65.08
50632;BME280;49583;45.590;-122.498;2023-11-25T10:50:00;102332.18;;;1.16;65.23
50632;BME280;49583;45.590;-122.498;2023-11-25T10:52:35;102331.38;;;1.15;65.17
50632;BME280;49583;45.590;-122.498;2023-11-25T10:54:50;102329.90;;;1.13;65.13
50632;BME280;49583;45.590;-122.498;2023-11-25T10:57:04;102332.95;;;1.11;65.22
50632;BME280;49583;45.590;-122.498;2023-11-25T10:59:20;102326.51;;;1.09;65.11
50632;BME280;49583;45.590;-122.498;2023-11-25T11:01:38;102320.63;;;1.08;65.11
50632;BME280;49583;45.590;-122.498;2023-11-25T11:04:02;102318.61;;;1.06;65.25
50632;BME280;49583;45.590;-122.498;2023-11-25T11:06:20;102320.86;;;1.05;65.22
50632;BME280;49583;45.590;-122.498;2023-11-25T11:08:36;102316.39;;;1.01;65.46
50632;BME280;49583;45.590;-122.498;2023-11-25T11:11:00;102313.83;;;1.03;65.59
50632;BME280;49583;45.590;-122.498;2023-11-25T11:13:15;102314.44;;;1.04;65.66
50632;BME280;49583;45.590;-122.498;2023-11-25T11:15:32;102311.33;;;1.06;65.70
50632;BME280;49583;45.590;-122.498;2023-11-25T11:17:54;102312.90;;;1.07;65.61
50632;BME280;49583;45.590;-122.498;2023-11-25T11:20:15;102316.09;;;1.07;65.64
50632;BME280;49583;45.590;-122.498;2023-11-25T11:22:32;102313.55;;;1.06;65.62